sensor_id;sensor_type;location;lat;lon;timestamp;temperature;humidity
33109;HTU21D;19481;51.118;6.940;2024-01-30T00:03:51;9.27;60.73
33109;HTU21D;19481;51.118;6.940;2024-01-30T00:08:53;9.21;60.58
33109;HTU21D;19481;51.118;6.940;2024-01-30T00:13:54;9.20;60.99
33109;HTU21D;19481;51.118;6.940;2024-01-30T00:18:58;9.20;60.47
33109;HTU21D;19481;51.118;6.940;2024-01-30T00:23:59;9.15;60.91
33109;HTU21D;19481;51.118;6.940;2024-01-30T00:29:01;9.17;61.05
33109;HTU21D;19481;51.118;6.940;2024-01-30T00:34:04;9.09;60.76
33109;HTU21D;19481;51.118;6.940;2024-01-30T00:39:06;9.05;60.92
33109;HTU21D;19481;51.118;6.940;2024-01-30T00:44:09;9.06;60.93
33109;HTU21D;19481;51.118;6.940;2024-01-30T00:49:12;9.03;60.88
33109;HTU21D;19481;51.118;6.940;2024-01-30T00:54:14;8.96;63.96
33109;HTU21D;19481;51.118;6.940;2024-01-30T00:59:15;9.00;61.49
33109;HTU21D;19481;51.118;6.940;2024-01-30T01:04:18;8.98;60.94
33109;HTU21D;19481;51.118;6.940;2024-01-30T01:09:21;8.92;61.10
33109;HTU21D;19481;51.118;6.940;2024-01-30T01:14:23;8.87;61.34
33109;HTU21D;19481;51.118;6.940;2024-01-30T01:19:26;8.87;61.62
33109;HTU21D;19481;51.118;6.940;2024-01-30T01:24:27;8.80;61.89
33109;HTU21D;19481;51.118;6.940;2024-01-30T01:29:29;8.79;63.20
33109;HTU21D;19481;51.118;6.940;2024-01-30T01:34:32;8.74;61.56
33109;HTU21D;19481;51.118;6.940;2024-01-30T01:39:34;8.71;62.13
33109;HTU21D;19481;51.118;6.940;2024-01-30T01:44:35;8.68;63.60
33109;HTU21D;19481;51.118;6.940;2024-01-30T01:49:38;8.68;61.87
33109;HTU21D;19481;51.118;6.940;2024-01-30T01:54:41;8.68;62.35
33109;HTU21D;19481;51.118;6.940;2024-01-30T01:59:43;8.70;61.99
33109;HTU21D;19481;51.118;6.940;2024-01-30T02:04:46;8.74;62.36
33109;HTU21D;19481;51.118;6.940;2024-01-30T02:09:48;8.73;62.37
33109;HTU21D;19481;51.118;6.940;2024-01-30T02:14:50;8.72;62.05
33109;HTU21D;19481;51.118;6.940;2024-01-30T02:19:53;8.72;61.73
33109;HTU21D;19481;51.118;6.940;2024-01-30T02:24:56;8.67;63.61
33109;HTU21D;19481;51.118;6.940;2024-01-30T02:29:57;8.67;62.08
33109;HTU21D;19481;51.118;6.940;2024-01-30T02:34:59;8.67;62.19
33109;HTU21D;19481;51.118;6.940;2024-01-30T02:40:02;8.66;62.76
33109;HTU21D;19481;51.118;6.940;2024-01-30T02:45:05;8.68;62.23
33109;HTU21D;19481;51.118;6.940;2024-01-30T02:50:07;8.73;63.29
33109;HTU21D;19481;51.118;6.940;2024-01-30T02:55:11;8.77;61.68
33109;HTU21D;19481;51.118;6.940;2024-01-30T03:00:13;8.79;64.46
33109;HTU21D;19481;51.118;6.940;2024-01-30T03:05:15;8.81;62.18
33109;HTU21D;19481;51.118;6.940;2024-01-30T03:10:18;8.83;61.66
33109;HTU21D;19481;51.118;6.940;2024-01-30T03:15:19;8.86;61.79
33109;HTU21D;19481;51.118;6.940;2024-01-30T03:20:21;8.85;61.90
33109;HTU21D;19481;51.118;6.940;2024-01-30T03:25:24;8.87;61.76
33109;HTU21D;19481;51.118;6.940;2024-01-30T03:30:25;8.89;61.92
33109;HTU21D;19481;51.118;6.940;2024-01-30T03:35:27;8.88;62.08
33109;HTU21D;19481;51.118;6.940;2024-01-30T03:40:30;8.86;61.72
33109;HTU21D;19481;51.118;6.940;2024-01-30T03:45:31;8.89;63.26
33109;HTU21D;19481;51.118;6.940;2024-01-30T03:50:33;8.86;62.39
33109;HTU21D;19481;51.118;6.940;2024-01-30T03:55:36;8.82;62.01
33109;HTU21D;19481;51.118;6.940;2024-01-30T04:00:37;8.85;65.01
33109;HTU21D;19481;51.118;6.940;2024-01-30T04:05:39;8.86;63.71
33109;HTU21D;19481;51.118;6.940;2024-01-30T04:10:43;8.91;61.79
33109;HTU21D;19481;51.118;6.940;2024-01-30T04:15:44;8.90;62.18
33109;HTU21D;19481;51.118;6.940;2024-01-30T04:20:46;8.94;62.32
33109;HTU21D;19481;51.118;6.940;2024-01-30T04:25:49;8.89;61.70
33109;HTU21D;19481;51.118;6.940;2024-01-30T04:30:51;8.86;62.29
33109;HTU21D;19481;51.118;6.940;2024-01-30T04:35:52;8.82;62.30
33109;HTU21D;19481;51.118;6.940;2024-01-30T04:40:55;8.74;62.61
33109;HTU21D;19481;51.118;6.940;2024-01-30T04:45:57;8.72;65.14
33109;HTU21D;19481;51.118;6.940;2024-01-30T04:50:58;8.65;63.62
33109;HTU21D;19481;51.118;6.940;2024-01-30T04:56:05;8.65;65.46
33109;HTU21D;19481;51.118;6.940;2024-01-30T05:01:07;8.61;63.63
33109;HTU21D;19481;51.118;6.940;2024-01-30T05:06:08;8.57;63.05
33109;HTU21D;19481;51.118;6.940;2024-01-30T05:11:11;8.56;63.08
33109;HTU21D;19481;51.118;6.940;2024-01-30T05:16:13;8.52;64.92
33109;HTU21D;19481;51.118;6.940;2024-01-30T05:21:15;8.50;63.60
33109;HTU21D;19481;51.118;6.940;2024-01-30T05:26:18;8.50;62.88
33109;HTU21D;19481;51.118;6.940;2024-01-30T05:31:19;8.53;63.89
33109;HTU21D;19481;51.118;6.940;2024-01-30T05:36:21;8.49;63.71
33109;HTU21D;19481;51.118;6.940;2024-01-30T05:41:24;8.45;63.78
33109;HTU21D;19481;51.118;6.940;2024-01-30T05:46:26;8.43;63.97
33109;HTU21D;19481;51.118;6.940;2024-01-30T05:51:27;8.37;65.37
33109;HTU21D;19481;51.118;6.940;2024-01-30T05:56:31;8.38;64.49
33109;HTU21D;19481;51.118;6.940;2024-01-30T06:01:32;8.41;64.08
33109;HTU21D;19481;51.118;6.940;2024-01-30T06:06:35;8.35;64.56
33109;HTU21D;19481;51.118;6.940;2024-01-30T06:11:38;8.39;66.50
33109;HTU21D;19481;51.118;6.940;2024-01-30T06:16:39;8.39;64.45
33109;HTU21D;19481;51.118;6.940;2024-01-30T06:21:41;8.38;63.63
33109;HTU21D;19481;51.118;6.940;2024-01-30T06:26:44;8.37;65.30
33109;HTU21D;19481;51.118;6.940;2024-01-30T06:31:45;8.43;66.66
33109;HTU21D;19481;51.118;6.940;2024-01-30T06:36:47;8.44;63.78
33109;HTU21D;19481;51.118;6.940;2024-01-30T06:41:50;8.43;63.28
33109;HTU21D;19481;51.118;6.940;2024-01-30T06:46:52;8.48;65.14
33109;HTU21D;19481;51.118;6.940;2024-01-30T06:51:53;8.51;64.18
33109;HTU21D;19481;51.118;6.940;2024-01-30T06:56:56;8.55;65.04
33109;HTU21D;19481;51.118;6.940;2024-01-30T07:01:58;8.62;63.30
33109;HTU21D;19481;51.118;6.940;2024-01-30T07:06:59;8.65;64.40
33109;HTU21D;19481;51.118;6.940;2024-01-30T07:12:03;8.67;65.37
33109;HTU21D;19481;51.118;6.940;2024-01-30T07:17:05;8.75;63.15
33109;HTU21D;19481;51.118;6.940;2024-01-30T07:22:08;8.78;63.47
33109;HTU21D;19481;51.118;6.940;2024-01-30T07:27:11;8.77;64.86
33109;HTU21D;19481;51.118;6.940;2024-01-30T07:32:12;8.78;63.21
33109;HTU21D;19481;51.118;6.940;2024-01-30T07:37:14;8.82;64.42
33109;HTU21D;19481;51.118;6.940;2024-01-30T07:42:17;8.86;63.18
33109;HTU21D;19481;51.118;6.940;2024-01-30T07:47:19;8.93;63.37
33109;HTU21D;19481;51.118;6.940;2024-01-30T07:52:20;8.95;63.24
33109;HTU21D;19481;51.118;6.940;2024-01-30T07:57:23;9.01;62.55
33109;HTU21D;19481;51.118;6.940;2024-01-30T08:02:25;9.06;62.62
33109;HTU21D;19481;51.118;6.940;2024-01-30T08:07:27;9.08;63.90
33109;HTU21D;19481;51.118;6.940;2024-01-30T08:12:31;9.16;62.46
33109;HTU21D;19481;51.118;6.940;2024-01-30T08:17:33;9.20;62.64
33109;HTU21D;19481;51.118;6.940;2024-01-30T08:22:34;9.22;63.52
33109;HTU21D;19481;51.118;6.940;2024-01-30T08:27:37;9.25;63.85
33109;HTU21D;19481;51.118;6.940;2024-01-30T08:32:39;9.27;62.65
33109;HTU21D;19481;51.118;6.940;2024-01-30T08:37:41;9.33;62.57
33109;HTU21D;19481;51.118;6.940;2024-01-30T08:42:44;9.38;62.19
33109;HTU21D;19481;51.118;6.940;2024-01-30T08:47:45;9.48;62.32
33109;HTU21D;19481;51.118;6.940;2024-01-30T08:52:47;9.61;62.12
33109;HTU21D;19481;51.118;6.940;2024-01-30T08:57:50;9.75;62.36
33109;HTU21D;19481;51.118;6.940;2024-01-30T09:02:52;9.95;61.70
33109;HTU21D;19481;51.118;6.940;2024-01-30T09:07:54;10.25;61.01
33109;HTU21D;19481;51.118;6.940;2024-01-30T09:12:57;10.35;60.27
33109;HTU21D;19481;51.118;6.940;2024-01-30T09:17:58;10.59;60.52
33109;HTU21D;19481;51.118;6.940;2024-01-30T09:23:00;10.78;59.61
33109;HTU21D;19481;51.118;6.940;2024-01-30T09:28:04;11.04;59.78
33109;HTU21D;19481;51.118;6.940;2024-01-30T09:33:06;11.07;59.35
33109;HTU21D;19481;51.118;6.940;2024-01-30T09:38:07;11.17;59.37
33109;HTU21D;19481;51.118;6.940;2024-01-30T09:43:11;11.24;59.42
33109;HTU21D;19481;51.118;6.940;2024-01-30T09:48:16;11.30;59.52
33109;HTU21D;19481;51.118;6.940;2024-01-30T09:53:18;11.54;59.06
33109;HTU21D;19481;51.118;6.940;2024-01-30T09:58:21;11.62;59.03
33109;HTU21D;19481;51.118;6.940;2024-01-30T10:03:23;11.75;59.09
33109;HTU21D;19481;51.118;6.940;2024-01-30T10:08:26;11.84;58.98
33109;HTU21D;19481;51.118;6.940;2024-01-30T10:13:30;11.82;59.14
33109;HTU21D;19481;51.118;6.940;2024-01-30T10:18:31;11.74;59.37
33109;HTU21D;19481;51.118;6.940;2024-01-30T10:23:33;11.92;58.88
33109;HTU21D;19481;51.118;6.940;2024-01-30T10:28:36;12.05;58.51
33109;HTU21D;19481;51.118;6.940;2024-01-30T10:33:38;12.07;58.66
33109;HTU21D;19481;51.118;6.940;2024-01-30T10:38:42;11.99;59.12
33109;HTU21D;19481;51.118;6.940;2024-01-30T10:43:52;11.98;59.22
33109;HTU21D;19481;51.118;6.940;2024-01-30T10:48:57;11.91;59.41
33109;HTU21D;19481;51.118;6.940;2024-01-30T10:54:00;11.90;59.33
33109;HTU21D;19481;51.118;6.940;2024-01-30T10:59:04;12.05;59.01
33109;HTU21D;19481;51.118;6.940;2024-01-30T11:04:05;12.22;58.67
33109;HTU21D;19481;51.118;6.940;2024-01-30T11:09:11;12.49;58.16
33109;HTU21D;19481;51.118;6.940;2024-01-30T11:14:15;12.44;58.54
33109;HTU21D;19481;51.118;6.940;2024-01-30T11:19:22;12.59;58.19
33109;HTU21D;19481;51.118;6.940;2024-01-30T11:24:24;12.74;58.03
33109;HTU21D;19481;51.118;6.940;2024-01-30T11:29:28;12.76;58.23
33109;HTU21D;19481;51.118;6.940;2024-01-30T11:34:30;12.89;58.07
33109;HTU21D;19481;51.118;6.940;2024-01-30T11:39:32;13.05;57.90
33109;HTU21D;19481;51.118;6.940;2024-01-30T11:44:35;13.09;57.94
33109;HTU21D;19481;51.118;6.940;2024-01-30T11:49:36;13.25;57.61
33109;HTU21D;19481;51.118;6.940;2024-01-30T11:54:39;13.18;58.07
33109;HTU21D;19481;51.118;6.940;2024-01-30T11:59:43;13.26;57.87
33109;HTU21D;19481;51.118;6.940;2024-01-30T12:04:44;13.25;58.11
33109;HTU21D;19481;51.118;6.940;2024-01-30T12:09:52;13.16;58.52
33109;HTU21D;19481;51.118;6.940;2024-01-30T12:14:56;13.01;58.88
33109;HTU21D;19481;51.118;6.940;2024-01-30T12:20:05;13.11;58.51
33109;HTU21D;19481;51.118;6.940;2024-01-30T12:25:08;13.03;58.83
33109;HTU21D;19481;51.118;6.940;2024-01-30T12:30:12;12.96;58.94
33109;HTU21D;19481;51.118;6.940;2024-01-30T12:35:17;12.89;59.09
33109;HTU21D;19481;51.118;6.940;2024-01-30T12:40:19;12.90;59.06
33109;HTU21D;19481;51.118;6.940;2024-01-30T12:45:22;12.95;58.87
33109;HTU21D;19481;51.118;6.940;2024-01-30T12:50:23;12.91;59.08
33109;HTU21D;19481;51.118;6.940;2024-01-30T12:55:25;13.01;58.83
33109;HTU21D;19481;51.118;6.940;2024-01-30T13:00:30;13.04;58.95
33109;HTU21D;19481;51.118;6.940;2024-01-30T13:05:31;13.09;59.11
33109;HTU21D;19481;51.118;6.940;2024-01-30T13:10:33;13.18;59.09
33109;HTU21D;19481;51.118;6.940;2024-01-30T13:15:36;13.17;59.15
33109;HTU21D;19481;51.118;6.940;2024-01-30T13:20:37;13.14;59.31
33109;HTU21D;19481;51.118;6.940;2024-01-30T13:25:39;13.16;59.36
33109;HTU21D;19481;51.118;6.940;2024-01-30T13:30:42;13.11;59.44
33109;HTU21D;19481;51.118;6.940;2024-01-30T13:35:44;13.07;59.64
33109;HTU21D;19481;51.118;6.940;2024-01-30T13:40:46;12.99;59.83
33109;HTU21D;19481;51.118;6.940;2024-01-30T13:45:49;13.01;60.42
33109;HTU21D;19481;51.118;6.940;2024-01-30T13:50:51;12.95;60.02
33109;HTU21D;19481;51.118;6.940;2024-01-30T13:55:53;12.99;59.89
33109;HTU21D;19481;51.118;6.940;2024-01-30T14:00:56;12.97;60.06
33109;HTU21D;19481;51.118;6.940;2024-01-30T14:05:59;13.01;60.09
33109;HTU21D;19481;51.118;6.940;2024-01-30T14:11:00;13.01;60.12
33109;HTU21D;19481;51.118;6.940;2024-01-30T14:16:04;12.97;60.53
33109;HTU21D;19481;51.118;6.940;2024-01-30T14:21:06;13.04;59.96
33109;HTU21D;19481;51.118;6.940;2024-01-30T14:26:08;13.04;60.15
33109;HTU21D;19481;51.118;6.940;2024-01-30T14:31:11;13.02;60.05
33109;HTU21D;19481;51.118;6.940;2024-01-30T14:36:12;13.04;60.05
33109;HTU21D;19481;51.118;6.940;2024-01-30T14:41:14;13.00;60.12
33109;HTU21D;19481;51.118;6.940;2024-01-30T14:46:17;12.96;60.20
33109;HTU21D;19481;51.118;6.940;2024-01-30T14:51:19;12.94;60.29
33109;HTU21D;19481;51.118;6.940;2024-01-30T14:56:20;12.91;60.73
33109;HTU21D;19481;51.118;6.940;2024-01-30T15:01:23;12.90;60.30
33109;HTU21D;19481;51.118;6.940;2024-01-30T15:06:25;12.81;60.62
33109;HTU21D;19481;51.118;6.940;2024-01-30T15:11:27;12.78;60.79
33109;HTU21D;19481;51.118;6.940;2024-01-30T15:16:30;12.70;61.99
33109;HTU21D;19481;51.118;6.940;2024-01-30T15:21:31;12.65;61.11
33109;HTU21D;19481;51.118;6.940;2024-01-30T15:26:33;12.60;61.32
33109;HTU21D;19481;51.118;6.940;2024-01-30T15:31:36;12.56;61.23
33109;HTU21D;19481;51.118;6.940;2024-01-30T15:36:38;12.51;61.42
33109;HTU21D;19481;51.118;6.940;2024-01-30T15:41:39;12.44;61.45
33109;HTU21D;19481;51.118;6.940;2024-01-30T15:46:42;12.41;61.41
33109;HTU21D;19481;51.118;6.940;2024-01-30T15:51:44;12.32;61.54
33109;HTU21D;19481;51.118;6.940;2024-01-30T15:56:45;12.18;61.87
33109;HTU21D;19481;51.118;6.940;2024-01-30T16:01:48;12.05;60.95
33109;HTU21D;19481;51.118;6.940;2024-01-30T16:06:50;11.99;60.83
33109;HTU21D;19481;51.118;6.940;2024-01-30T16:11:51;11.83;60.80
33109;HTU21D;19481;51.118;6.940;2024-01-30T16:16:54;11.74;60.77
33109;HTU21D;19481;51.118;6.940;2024-01-30T16:21:56;11.71;60.62
33109;HTU21D;19481;51.118;6.940;2024-01-30T16:26:58;11.63;60.63
33109;HTU21D;19481;51.118;6.940;2024-01-30T16:32:01;11.57;60.57
33109;HTU21D;19481;51.118;6.940;2024-01-30T16:37:03;11.47;60.63
33109;HTU21D;19481;51.118;6.940;2024-01-30T16:42:04;11.39;60.70
33109;HTU21D;19481;51.118;6.940;2024-01-30T16:47:08;11.28;60.61
33109;HTU21D;19481;51.118;6.940;2024-01-30T16:52:10;11.25;60.31
33109;HTU21D;19481;51.118;6.940;2024-01-30T16:57:11;11.15;60.03
33109;HTU21D;19481;51.118;6.940;2024-01-30T17:02:14;11.10;60.09
33109;HTU21D;19481;51.118;6.940;2024-01-30T17:07:16;11.08;59.96
33109;HTU21D;19481;51.118;6.940;2024-01-30T17:12:18;11.03;59.63
33109;HTU21D;19481;51.118;6.940;2024-01-30T17:17:20;11.00;59.67
33109;HTU21D;19481;51.118;6.940;2024-01-30T17:22:22;10.95;59.54
33109;HTU21D;19481;51.118;6.940;2024-01-30T17:27:24;10.90;59.50
33109;HTU21D;19481;51.118;6.940;2024-01-30T17:32:27;10.83;59.36
33109;HTU21D;19481;51.118;6.940;2024-01-30T17:37:28;10.83;58.89
33109;HTU21D;19481;51.118;6.940;2024-01-30T17:42:30;10.75;59.26
33109;HTU21D;19481;51.118;6.940;2024-01-30T17:47:33;10.65;59.43
33109;HTU21D;19481;51.118;6.940;2024-01-30T17:52:35;10.62;59.36
33109;HTU21D;19481;51.118;6.940;2024-01-30T17:57:37;10.55;59.42
33109;HTU21D;19481;51.118;6.940;2024-01-30T18:02:40;10.48;59.67
33109;HTU21D;19481;51.118;6.940;2024-01-30T18:07:42;10.39;59.63
33109;HTU21D;19481;51.118;6.940;2024-01-30T18:12:44;10.28;59.70
33109;HTU21D;19481;51.118;6.940;2024-01-30T18:17:47;10.21;59.72
33109;HTU21D;19481;51.118;6.940;2024-01-30T18:22:49;10.20;59.51
33109;HTU21D;19481;51.118;6.940;2024-01-30T18:27:50;10.20;59.46
33109;HTU21D;19481;51.118;6.940;2024-01-30T18:32:53;10.19;59.60
33109;HTU21D;19481;51.118;6.940;2024-01-30T18:37:55;10.19;59.86
33109;HTU21D;19481;51.118;6.940;2024-01-30T18:42:56;10.12;60.12
33109;HTU21D;19481;51.118;6.940;2024-01-30T18:48:02;10.10;60.34
33109;HTU21D;19481;51.118;6.940;2024-01-30T18:53:04;10.08;60.43
33109;HTU21D;19481;51.118;6.940;2024-01-30T18:58:05;10.03;60.54
33109;HTU21D;19481;51.118;6.940;2024-01-30T19:03:09;9.99;60.65
33109;HTU21D;19481;51.118;6.940;2024-01-30T19:08:11;10.00;60.68
33109;HTU21D;19481;51.118;6.940;2024-01-30T19:13:13;9.95;60.77
33109;HTU21D;19481;51.118;6.940;2024-01-30T19:18:16;9.90;60.88
33109;HTU21D;19481;51.118;6.940;2024-01-30T19:23:17;9.85;61.12
33109;HTU21D;19481;51.118;6.940;2024-01-30T19:28:19;9.89;61.02
33109;HTU21D;19481;51.118;6.940;2024-01-30T19:33:22;9.84;61.16
33109;HTU21D;19481;51.118;6.940;2024-01-30T19:38:23;9.81;61.30
33109;HTU21D;19481;51.118;6.940;2024-01-30T19:43:25;9.75;61.41
33109;HTU21D;19481;51.118;6.940;2024-01-30T19:48:29;9.75;61.43
33109;HTU21D;19481;51.118;6.940;2024-01-30T19:53:30;9.70;61.54
33109;HTU21D;19481;51.118;6.940;2024-01-30T19:58:32;9.64;61.73
33109;HTU21D;19481;51.118;6.940;2024-01-30T20:03:35;9.67;61.60
33109;HTU21D;19481;51.118;6.940;2024-01-30T20:08:37;9.68;61.59
33109;HTU21D;19481;51.118;6.940;2024-01-30T20:13:39;9.61;61.86
33109;HTU21D;19481;51.118;6.940;2024-01-30T20:18:42;9.57;61.82
33109;HTU21D;19481;51.118;6.940;2024-01-30T20:23:44;9.53;61.91
33109;HTU21D;19481;51.118;6.940;2024-01-30T20:28:45;9.49;61.96
33109;HTU21D;19481;51.118;6.940;2024-01-30T20:33:49;9.40;62.07
33109;HTU21D;19481;51.118;6.940;2024-01-30T20:38:51;9.37;62.13
33109;HTU21D;19481;51.118;6.940;2024-01-30T20:43:52;9.36;62.12
33109;HTU21D;19481;51.118;6.940;2024-01-30T20:48:55;9.32;62.18
33109;HTU21D;19481;51.118;6.940;2024-01-30T20:53:57;9.26;62.32
33109;HTU21D;19481;51.118;6.940;2024-01-30T20:58:59;9.22;62.41
33109;HTU21D;19481;51.118;6.940;2024-01-30T21:04:01;9.23;62.31
33109;HTU21D;19481;51.118;6.940;2024-01-30T21:09:03;9.17;62.56
33109;HTU21D;19481;51.118;6.940;2024-01-30T21:14:06;9.09;62.69
33109;HTU21D;19481;51.118;6.940;2024-01-30T21:19:09;9.06;62.70
33109;HTU21D;19481;51.118;6.940;2024-01-30T21:24:11;9.09;62.68
33109;HTU21D;19481;51.118;6.940;2024-01-30T21:29:12;9.07;62.73
33109;HTU21D;19481;51.118;6.940;2024-01-30T21:34:15;9.07;62.78
33109;HTU21D;19481;51.118;6.940;2024-01-30T21:39:17;9.02;63.03
33109;HTU21D;19481;51.118;6.940;2024-01-30T21:44:18;8.95;63.24
33109;HTU21D;19481;51.118;6.940;2024-01-30T21:49:21;8.93;63.21
33109;HTU21D;19481;51.118;6.940;2024-01-30T21:54:23;8.91;63.15
33109;HTU21D;19481;51.118;6.940;2024-01-30T21:59:25;8.89;63.25
33109;HTU21D;19481;51.118;6.940;2024-01-30T22:04:29;8.83;63.38
33109;HTU21D;19481;51.118;6.940;2024-01-30T22:09:30;8.80;63.53
33109;HTU21D;19481;51.118;6.940;2024-01-30T22:14:32;8.81;63.61
33109;HTU21D;19481;51.118;6.940;2024-01-30T22:19:35;8.77;63.55
33109;HTU21D;19481;51.118;6.940;2024-01-30T22:24:37;8.72;63.79
33109;HTU21D;19481;51.118;6.940;2024-01-30T22:29:38;8.65;64.11
33109;HTU21D;19481;51.118;6.940;2024-01-30T22:34:42;8.63;63.89
33109;HTU21D;19481;51.118;6.940;2024-01-30T22:39:44;8.64;63.85
33109;HTU21D;19481;51.118;6.940;2024-01-30T22:44:45;8.65;63.86
33109;HTU21D;19481;51.118;6.940;2024-01-30T22:49:49;8.59;63.99
33109;HTU21D;19481;51.118;6.940;2024-01-30T22:54:50;8.55;64.31
33109;HTU21D;19481;51.118;6.940;2024-01-30T22:59:52;8.57;64.18
33109;HTU21D;19481;51.118;6.940;2024-01-30T23:04:55;8.49;64.86
33109;HTU21D;19481;51.118;6.940;2024-01-30T23:09:56;8.46;64.59
33109;HTU21D;19481;51.118;6.940;2024-01-30T23:14:58;8.49;64.47
33109;HTU21D;19481;51.118;6.940;2024-01-30T23:20:01;8.41;64.85
33109;HTU21D;19481;51.118;6.940;2024-01-30T23:25:05;8.48;64.69
33109;HTU21D;19481;51.118;6.940;2024-01-30T23:30:08;8.42;64.95
33109;HTU21D;19481;51.118;6.940;2024-01-30T23:35:11;8.32;65.41
33109;HTU21D;19481;51.118;6.940;2024-01-30T23:40:13;8.28;65.78
33109;HTU21D;19481;51.118;6.940;2024-01-30T23:45:15;8.17;66.21
33109;HTU21D;19481;51.118;6.940;2024-01-30T23:50:18;8.15;65.95
33109;HTU21D;19481;51.118;6.940;2024-01-30T23:55:19;8.11;66.36
